Time;durP1;ratioP1;P1;durP2;ratioP2;P2;SDS_P1;SDS_P2;PMS_P1;PMS_P2;Temp;Humidity;BMP_temperature;BMP_pressure;BME280_temperature;BME280_humidity;BME280_pressure;Samples;Min_cycle;Max_cycle;Signal;HPM_P1;HPM_P2
2021/04/24 00:02:26;;;;;;;29.83;20.40;;;3.10;99.90;;;;;;4939361;29;20356;-81
2021/04/24 00:04:56;;;;;;;28.57;19.33;;;3.10;99.90;;;;;;4890462;29;20258;-81
2021/04/24 00:07:26;;;;;;;36.03;21.00;;;3.00;99.90;;;;;;4919576;28;20237;-82
2021/04/24 00:09:54;;;;;;;31.23;19.73;;;3.00;99.90;;;;;;4935734;29;20217;-83
2021/04/24 00:12:21;;;;;;;30.43;20.10;;;2.90;99.90;;;;;;4939659;28;20258;-83
2021/04/24 00:14:50;;;;;;;30.67;20.73;;;2.80;99.90;;;;;;4912397;29;20230;-83
2021/04/24 00:17:17;;;;;;;28.50;20.23;;;2.80;99.90;;;;;;4913407;29;20226;-82
2021/04/24 00:19:46;;;;;;;25.80;20.27;;;2.80;99.90;;;;;;4938084;29;20292;-81
2021/04/24 00:22:14;;;;;;;32.53;21.03;;;2.80;99.90;;;;;;4937769;29;20244;-82
2021/04/24 00:24:44;;;;;;;33.73;20.07;;;2.80;99.90;;;;;;4924343;29;20225;-83
2021/04/24 00:27:12;;;;;;;29.60;20.63;;;2.90;99.90;;;;;;4928825;29;20218;-83
2021/04/24 00:29:40;;;;;;;29.67;19.87;;;2.90;99.90;;;;;;4927003;29;20194;-82
2021/04/24 00:32:08;;;;;;;29.40;20.03;;;2.90;99.90;;;;;;4946666;29;20279;-83
2021/04/24 00:34:38;;;;;;;25.67;18.70;;;3.00;99.90;;;;;;4916077;29;20226;-81
2021/04/24 00:37:06;;;;;;;30.07;19.47;;;2.90;99.90;;;;;;4918344;29;20224;-83
2021/04/24 00:39:34;;;;;;;34.77;21.17;;;2.80;99.90;;;;;;4941783;28;20186;-83
2021/04/24 00:42:02;;;;;;;30.77;19.43;;;2.60;99.90;;;;;;4940604;29;20322;-83
2021/04/24 00:44:30;;;;;;;32.23;20.13;;;2.50;99.90;;;;;;4916048;29;21144;-82
2021/04/24 00:47:00;;;;;;;30.73;20.57;;;2.40;99.90;;;;;;4891978;29;20226;-84
2021/04/24 00:49:28;;;;;;;29.93;20.23;;;2.20;99.90;;;;;;4922399;29;20265;-82
2021/04/24 00:51:56;;;;;;;31.80;21.03;;;2.20;99.90;;;;;;4916704;29;20229;-83
2021/04/24 00:54:24;;;;;;;33.90;21.60;;;2.10;99.90;;;;;;4900952;29;20229;-83
2021/04/24 00:56:52;;;;;;;34.53;20.43;;;2.10;99.90;;;;;;4898912;29;20230;-81
2021/04/24 00:59:19;;;;;;;31.70;22.03;;;2.00;99.90;;;;;;4905408;29;20226;-83
2021/04/24 01:01:47;;;;;;;32.80;21.47;;;2.00;99.90;;;;;;4932055;29;20210;-83
2021/04/24 01:04:17;;;;;;;31.23;20.90;;;1.90;99.90;;;;;;4913262;29;20242;-83
2021/04/24 01:06:45;;;;;;;28.07;19.97;;;1.80;99.90;;;;;;4901832;29;20229;-83
2021/04/24 01:09:12;;;;;;;30.80;18.90;;;1.70;99.90;;;;;;4921065;29;20206;-83
2021/04/24 01:11:41;;;;;;;35.77;20.07;;;1.80;99.90;;;;;;4917073;29;20756;-82
2021/04/24 01:14:08;;;;;;;31.10;19.97;;;1.70;99.90;;;;;;4901473;29;20232;-84
2021/04/24 01:16:36;;;;;;;30.67;17.97;;;1.80;99.90;;;;;;4895790;29;20229;-82
2021/04/24 01:19:04;;;;;;;25.80;17.83;;;1.80;99.90;;;;;;4930171;29;20232;-83
2021/04/24 01:21:36;;;;;;;27.90;18.17;;;1.90;99.90;;;;;;4933442;29;20208;-81
2021/04/24 01:24:08;;;;;;;25.97;17.33;;;2.00;99.90;;;;;;4912974;29;20215;-82
2021/04/24 01:26:35;;;;;;;26.77;17.47;;;2.00;99.90;;;;;;4913504;29;20304;-81
2021/04/24 01:29:04;;;;;;;27.10;17.67;;;2.00;99.90;;;;;;4929752;29;20245;-83
2021/04/24 01:31:33;;;;;;;28.27;16.97;;;1.90;99.90;;;;;;4931286;29;20242;-81
2021/04/24 01:34:04;;;;;;;27.57;16.43;;;1.90;99.90;;;;;;4925517;28;20213;-82
2021/04/24 01:36:32;;;;;;;25.13;15.53;;;2.00;99.90;;;;;;4908160;29;20262;-83
2021/04/24 01:39:00;;;;;;;27.70;15.93;;;1.80;99.90;;;;;;4932746;29;20224;-82
2021/04/24 01:41:28;;;;;;;25.83;16.57;;;1.80;99.90;;;;;;4931694;29;20304;-83
2021/04/24 01:43:56;;;;;;;23.77;15.47;;;1.90;99.90;;;;;;4927316;28;20420;-82
2021/04/24 01:46:25;;;;;;;25.50;16.20;;;1.90;99.90;;;;;;4901544;29;20238;-82
2021/04/24 01:48:54;;;;;;;24.00;15.40;;;2.00;99.90;;;;;;4931603;29;20202;-80
2021/04/24 01:51:22;;;;;;;23.17;15.67;;;1.90;99.80;;;;;;4935721;29;20186;-83
2021/04/24 01:53:53;;;;;;;20.03;13.83;;;1.80;98.70;;;;;;4929962;28;20735;-81
2021/04/24 01:56:46;;;;;;;24.70;14.47;;;1.80;98.30;;;;;;4902144;29;20441;-82
2021/04/24 01:59:14;;;;;;;22.10;14.13;;;1.60;99.50;;;;;;4935783;28;20261;-83
2021/04/24 02:01:43;;;;;;;22.23;13.93;;;1.70;99.40;;;;;;4940244;29;20265;-83
2021/04/24 02:04:10;;;;;;;22.33;13.87;;;1.70;98.80;;;;;;4914361;28;20236;-82
2021/04/24 02:06:38;;;;;;;20.10;13.00;;;1.70;97.90;;;;;;4909260;29;20239;-83
2021/04/24 02:09:09;;;;;;;19.67;13.20;;;1.60;97.40;;;;;;4935925;29;20204;-80
2021/04/24 02:11:36;;;;;;;23.90;13.33;;;1.50;97.00;;;;;;4931695;29;20199;-84
2021/04/24 02:14:06;;;;;;;19.07;12.10;;;1.40;97.20;;;;;;4919626;29;20237;-83
2021/04/24 02:16:33;;;;;;;23.00;13.30;;;1.40;97.80;;;;;;4908557;29;20240;-83
2021/04/24 02:19:01;;;;;;;18.73;13.03;;;1.40;97.80;;;;;;4922450;29;20220;-84
2021/04/24 02:21:29;;;;;;;24.03;13.30;;;1.40;98.10;;;;;;4925813;29;20503;-82
2021/04/24 02:23:57;;;;;;;23.20;12.83;;;1.40;98.10;;;;;;4913941;29;20219;-83
2021/04/24 02:26:25;;;;;;;20.50;12.10;;;1.40;97.40;;;;;;4887954;29;20230;-83
2021/04/24 02:28:52;;;;;;;18.63;11.40;;;1.40;97.00;;;;;;4930671;29;20201;-82
2021/04/24 02:31:21;;;;;;;21.97;12.37;;;1.50;95.90;;;;;;4934209;29;20244;-81
2021/04/24 02:33:49;;;;;;;24.37;11.50;;;1.40;95.40;;;;;;4918562;28;20729;-83
2021/04/24 02:36:17;;;;;;;17.17;11.13;;;1.40;94.80;;;;;;4872563;29;20236;-83
2021/04/24 02:38:51;;;;;;;15.90;11.50;;;1.30;94.80;;;;;;4909003;29;20527;-81
2021/04/24 02:41:19;;;;;;;18.10;11.03;;;1.30;94.80;;;;;;4917297;29;20204;-83
2021/04/24 02:43:47;;;;;;;19.30;10.83;;;1.30;94.10;;;;;;4911034;29;20204;-82
2021/04/24 02:46:16;;;;;;;17.20;11.10;;;1.40;93.70;;;;;;4878006;29;20802;-83
2021/04/24 02:48:44;;;;;;;18.27;11.37;;;1.40;93.50;;;;;;4913715;29;21474;-82
2021/04/24 02:51:11;;;;;;;17.23;9.37;;;1.40;93.30;;;;;;4911673;29;20462;-83
2021/04/24 02:53:39;;;;;;;17.03;10.67;;;1.40;92.60;;;;;;4925546;29;20411;-82
2021/04/24 02:56:06;;;;;;;18.10;9.97;;;1.40;92.60;;;;;;4875645;29;20253;-83
2021/04/24 02:58:34;;;;;;;17.03;10.13;;;1.50;92.20;;;;;;4927757;29;20194;-83
2021/04/24 03:01:02;;;;;;;15.90;9.33;;;1.50;91.30;;;;;;4921660;29;20239;-83
2021/04/24 03:03:29;;;;;;;17.43;9.77;;;1.70;91.00;;;;;;4909837;29;20346;-84
2021/04/24 03:05:58;;;;;;;15.57;9.40;;;1.60;90.90;;;;;;4870092;29;20343;-83
2021/04/24 03:08:26;;;;;;;15.13;9.70;;;1.50;91.20;;;;;;4912157;29;20264;-83
2021/04/24 03:10:53;;;;;;;14.13;9.63;;;1.40;91.20;;;;;;4914941;29;20276;-83
2021/04/24 03:13:21;;;;;;;15.40;8.73;;;1.40;91.00;;;;;;4911543;29;20251;-83
2021/04/24 03:15:48;;;;;;;21.13;9.30;;;1.30;91.40;;;;;;4878215;29;20243;-83
2021/04/24 03:18:16;;;;;;;13.23;8.53;;;1.20;91.70;;;;;;4909151;29;20641;-81
2021/04/24 03:20:44;;;;;;;14.20;9.17;;;1.20;92.00;;;;;;4913859;29;20454;-83
2021/04/24 03:23:12;;;;;;;15.13;9.70;;;1.20;91.50;;;;;;4909744;29;20620;-80
2021/04/24 03:25:40;;;;;;;15.70;9.17;;;1.20;91.70;;;;;;4872162;29;20584;-83
2021/04/24 03:28:08;;;;;;;17.93;9.27;;;1.20;91.70;;;;;;4913705;29;20235;-83
2021/04/24 03:30:35;;;;;;;13.17;9.13;;;1.30;91.80;;;;;;4911472;29;20233;-83
2021/04/24 03:33:03;;;;;;;19.93;9.70;;;1.30;91.40;;;;;;4912520;29;20208;-83
2021/04/24 03:35:31;;;;;;;18.80;9.07;;;1.20;91.40;;;;;;4875032;29;20229;-83
2021/04/24 03:37:58;;;;;;;14.27;8.87;;;1.20;91.40;;;;;;4914160;29;20212;-82
2021/04/24 03:40:27;;;;;;;14.43;9.43;;;1.20;91.30;;;;;;4922442;29;20217;-82
2021/04/24 03:42:56;;;;;;;14.80;9.50;;;1.10;91.90;;;;;;4920254;29;20224;-83
2021/04/24 03:45:24;;;;;;;16.97;10.00;;;1.10;91.70;;;;;;4888950;29;20474;-82
2021/04/24 03:47:54;;;;;;;14.60;8.43;;;1.10;91.30;;;;;;4892881;29;20294;-83
2021/04/24 03:50:23;;;;;;;14.77;8.93;;;1.10;91.40;;;;;;4912427;29;20223;-83
2021/04/24 03:52:52;;;;;;;14.40;9.03;;;1.20;91.30;;;;;;4909879;29;20255;-83
2021/04/24 03:55:21;;;;;;;16.77;8.50;;;1.20;91.60;;;;;;4880429;28;20225;-83
2021/04/24 03:57:51;;;;;;;15.43;8.87;;;1.20;91.60;;;;;;4901281;29;20232;-83
2021/04/24 04:00:20;;;;;;;15.60;8.63;;;1.20;91.50;;;;;;4908151;29;20209;-81
2021/04/24 04:02:49;;;;;;;16.70;10.00;;;1.30;91.50;;;;;;4912909;29;20220;-82
2021/04/24 04:05:19;;;;;;;17.67;8.73;;;1.40;91.50;;;;;;4880931;28;20234;-83
2021/04/24 04:07:47;;;;;;;12.97;8.97;;;1.50;90.80;;;;;;4932897;29;20200;-81
2021/04/24 04:10:17;;;;;;;13.63;8.77;;;1.50;90.50;;;;;;4929638;29;20213;-83
2021/04/24 04:12:53;;;;;;;18.50;8.90;;;1.80;90.60;;;;;;4929776;29;20204;-82
2021/04/24 04:15:24;;;;;;;15.83;9.37;;;1.80;90.50;;;;;;4897946;28;20238;-83
2021/04/24 04:17:55;;;;;;;13.97;8.10;;;1.70;90.30;;;;;;4927577;29;20269;-83
2021/04/24 04:20:22;;;;;;;17.60;9.20;;;1.80;90.50;;;;;;4927381;29;20213;-80
2021/04/24 04:22:51;;;;;;;11.97;7.57;;;2.00;89.80;;;;;;4926519;29;20186;-81
2021/04/24 04:25:18;;;;;;;16.10;8.67;;;1.90;88.40;;;;;;4906746;29;20221;-80
2021/04/24 04:27:47;;;;;;;15.33;8.70;;;2.00;89.00;;;;;;4919740;29;20584;-82
2021/04/24 04:30:17;;;;;;;11.47;8.60;;;2.10;89.20;;;;;;4938656;29;20449;-82
2021/04/24 04:32:45;;;;;;;13.27;8.13;;;2.10;87.90;;;;;;4934066;29;20206;-82
2021/04/24 04:35:13;;;;;;;12.60;7.40;;;2.20;86.90;;;;;;4879893;29;20305;-84
2021/04/24 04:37:42;;;;;;;17.63;8.50;;;2.30;87.00;;;;;;4913459;29;20388;-82
2021/04/24 04:40:12;;;;;;;16.13;8.20;;;2.40;87.00;;;;;;4918031;29;20206;-80
2021/04/24 04:42:41;;;;;;;12.67;7.50;;;2.50;86.80;;;;;;4925624;29;20512;-80
2021/04/24 04:45:10;;;;;;;13.30;7.50;;;2.60;87.00;;;;;;4895584;29;20226;-81
2021/04/24 04:47:39;;;;;;;13.33;7.57;;;2.70;85.50;;;;;;4916298;29;20229;-82
2021/04/24 04:50:10;;;;;;;11.70;6.93;;;2.80;86.10;;;;;;4930075;29;20293;-81
2021/04/24 04:52:38;;;;;;;11.27;7.73;;;2.80;85.60;;;;;;4926671;29;20460;-82
2021/04/24 04:55:08;;;;;;;12.90;7.60;;;2.80;85.20;;;;;;4895982;28;20229;-82
2021/04/24 04:57:36;;;;;;;10.93;7.10;;;3.00;85.40;;;;;;4906128;29;20238;-83
2021/04/24 05:00:06;;;;;;;11.27;6.90;;;3.10;84.50;;;;;;4925116;29;20221;-83
2021/04/24 05:02:33;;;;;;;13.23;7.90;;;3.10;84.80;;;;;;4917049;29;20596;-83
2021/04/24 05:05:03;;;;;;;12.83;7.10;;;3.20;84.90;;;;;;4891407;29;20226;-82
2021/04/24 05:07:30;;;;;;;12.70;6.87;;;3.30;83.30;;;;;;4909043;29;20462;-83
2021/04/24 05:10:19;;;;;;;11.37;6.67;;;3.40;83.40;;;;;;4916158;29;20591;-82
2021/04/24 05:12:47;;;;;;;10.70;7.00;;;3.50;83.50;;;;;;4921421;29;20741;-81
2021/04/24 05:15:15;;;;;;;12.10;6.97;;;3.60;82.30;;;;;;4904311;29;20422;-81
2021/04/24 05:17:47;;;;;;;9.70;6.50;;;3.70;82.00;;;;;;4925459;29;20281;-82
2021/04/24 05:20:19;;;;;;;9.03;6.57;;;3.80;82.10;;;;;;4923450;29;20210;-83
2021/04/24 05:22:48;;;;;;;11.80;6.70;;;3.90;81.90;;;;;;4918658;29;20211;-83
2021/04/24 05:25:19;;;;;;;11.40;6.83;;;4.00;81.80;;;;;;4888487;28;20422;-81
2021/04/24 05:27:48;;;;;;;11.90;6.13;;;4.20;82.00;;;;;;4917355;29;20474;-83
2021/04/24 05:30:18;;;;;;;13.87;7.10;;;4.30;82.00;;;;;;4921552;29;20596;-83
2021/04/24 05:32:57;;;;;;;10.90;6.47;;;4.30;81.60;;;;;;4932250;29;20211;-83
2021/04/24 05:35:29;;;;;;;11.57;6.20;;;4.40;81.20;;;;;;4902582;28;20226;-81
2021/04/24 05:38:00;;;;;;;9.70;6.10;;;4.50;80.80;;;;;;4928207;29;20583;-81
2021/04/24 05:40:28;;;;;;;12.23;6.43;;;4.60;80.80;;;;;;4932920;29;20381;-79
2021/04/24 05:43:00;;;;;;;9.60;6.10;;;4.70;80.90;;;;;;4934974;29;20217;-81
2021/04/24 05:45:28;;;;;;;10.80;6.57;;;4.80;80.50;;;;;;4889326;29;20600;-82
2021/04/24 05:47:57;;;;;;;9.63;6.73;;;4.90;80.70;;;;;;4937739;29;20217;-79
2021/04/24 05:50:26;;;;;;;12.20;6.50;;;5.10;80.40;;;;;;4926787;29;20205;-83
2021/04/24 05:52:57;;;;;;;9.07;5.67;;;5.10;80.30;;;;;;4931036;29;20210;-80
2021/04/24 05:55:27;;;;;;;10.80;5.97;;;5.20;80.10;;;;;;4894167;29;20255;-82
2021/04/24 05:57:56;;;;;;;8.27;5.80;;;5.20;80.10;;;;;;4924112;29;20728;-79
2021/04/24 06:00:24;;;;;;;9.87;6.23;;;5.40;79.80;;;;;;4919788;29;20240;-83
2021/04/24 06:02:51;;;;;;;13.50;7.20;;;5.40;79.80;;;;;;4915151;29;20203;-82
2021/04/24 06:05:20;;;;;;;9.50;6.57;;;5.50;79.60;;;;;;4891654;29;21104;-81
2021/04/24 06:07:49;;;;;;;10.80;5.63;;;5.70;79.30;;;;;;4912518;29;20233;-83
2021/04/24 06:10:19;;;;;;;11.40;6.17;;;5.80;79.60;;;;;;4919350;29;20670;-82
2021/04/24 06:12:49;;;;;;;11.00;6.07;;;5.90;79.90;;;;;;4917916;29;20897;-82
2021/04/24 06:15:19;;;;;;;9.43;5.50;;;6.10;79.10;;;;;;4884979;29;20219;-81
2021/04/24 06:17:47;;;;;;;8.97;5.30;;;6.10;79.00;;;;;;4906512;29;20734;-82
2021/04/24 06:20:16;;;;;;;9.03;5.43;;;6.20;78.90;;;;;;4932228;29;20285;-81
2021/04/24 06:22:45;;;;;;;8.40;5.33;;;6.40;78.70;;;;;;4909970;29;20292;-81
2021/04/24 06:25:17;;;;;;;7.07;4.93;;;6.50;78.70;;;;;;4883124;29;20621;-81
2021/04/24 06:27:50;;;;;;;8.30;5.10;;;6.60;78.70;;;;;;4906452;29;20253;-82
2021/04/24 06:30:20;;;;;;;9.23;5.70;;;6.60;77.90;;;;;;4915316;29;20206;-82
2021/04/24 06:32:51;;;;;;;9.63;5.70;;;6.40;78.30;;;;;;4923160;29;20571;-82
2021/04/24 06:35:33;;;;;;;10.93;5.73;;;6.50;78.00;;;;;;4891313;28;20803;-83
2021/04/24 06:38:01;;;;;;;8.83;5.13;;;6.60;78.70;;;;;;4925367;29;20236;-82
2021/04/24 06:40:29;;;;;;;9.07;5.53;;;6.60;77.90;;;;;;4929145;29;20430;-80
2021/04/24 06:42:58;;;;;;;10.17;5.83;;;6.50;78.00;;;;;;4938028;29;20560;-82
2021/04/24 06:45:25;;;;;;;10.10;5.60;;;6.60;77.90;;;;;;4887549;29;20230;-80
2021/04/24 06:47:54;;;;;;;10.57;5.90;;;6.50;77.80;;;;;;4917512;29;20217;-81
2021/04/24 06:50:22;;;;;;;9.07;5.77;;;6.50;77.80;;;;;;4921233;29;20544;-81
2021/04/24 06:52:51;;;;;;;9.60;5.90;;;6.60;78.30;;;;;;4909208;29;20985;-82
2021/04/24 06:55:22;;;;;;;8.23;5.50;;;6.60;77.90;;;;;;4886528;28;20214;-82
2021/04/24 06:57:50;;;;;;;11.60;5.90;;;6.60;77.90;;;;;;4899172;29;20255;-82
2021/04/24 07:00:35;;;;;;;9.30;5.83;;;6.70;78.00;;;;;;4923746;29;20241;-80
2021/04/24 07:03:07;;;;;;;10.60;5.30;;;6.80;77.40;;;;;;4932717;29;20217;-81
2021/04/24 07:05:37;;;;;;;8.77;5.03;;;6.80;77.40;;;;;;4887956;29;20411;-81
2021/04/24 07:08:05;;;;;;;9.00;4.73;;;6.80;77.00;;;;;;4919169;29;20689;-83
2021/04/24 07:10:33;;;;;;;8.40;5.63;;;6.70;77.60;;;;;;4918540;29;20214;-83
2021/04/24 07:13:02;;;;;;;7.27;5.40;;;6.80;78.30;;;;;;4917846;29;20724;-83
2021/04/24 07:15:32;;;;;;;7.10;4.83;;;6.90;77.30;;;;;;4883607;29;21601;-83
2021/04/24 07:18:02;;;;;;;7.53;4.93;;;7.20;77.50;;;;;;4916745;29;20250;-83
2021/04/24 07:20:30;;;;;;;9.10;5.47;;;7.20;77.10;;;;;;4918332;29;21179;-82
2021/04/24 07:22:58;;;;;;;6.03;5.00;;;7.20;77.30;;;;;;4915238;29;20432;-81
2021/04/24 07:25:26;;;;;;;7.10;4.87;;;7.40;77.00;;;;;;4884342;29;20229;-81
2021/04/24 07:27:56;;;;;;;7.40;4.93;;;7.50;77.10;;;;;;4931564;29;20241;-82
2021/04/24 07:30:27;;;;;;;8.27;4.70;;;7.70;77.30;;;;;;4923428;29;22226;-82
2021/04/24 07:33:06;;;;;;;8.50;5.00;;;7.90;77.40;;;;;;4920587;29;20741;-83
2021/04/24 07:35:34;;;;;;;7.60;4.53;;;8.10;77.00;;;;;;4882884;29;20233;-82
2021/04/24 07:38:02;;;;;;;6.80;4.03;;;8.20;76.20;;;;;;4914306;29;20240;-80
2021/04/24 07:40:30;;;;;;;6.67;4.03;;;8.20;76.10;;;;;;4916548;29;20693;-80
2021/04/24 07:42:58;;;;;;;10.63;5.20;;;8.30;75.90;;;;;;4925189;29;20204;-80
2021/04/24 07:45:28;;;;;;;6.67;4.30;;;8.20;75.80;;;;;;4889819;29;20236;-82
2021/04/24 07:47:58;;;;;;;5.87;3.50;;;8.20;75.90;;;;;;4921797;29;20492;-80
2021/04/24 07:50:30;;;;;;;5.50;4.13;;;8.20;74.90;;;;;;4928218;29;20333;-81
2021/04/24 07:52:58;;;;;;;7.90;4.43;;;8.20;75.40;;;;;;4925157;29;20201;-80
2021/04/24 07:55:32;;;;;;;5.13;4.33;;;8.20;75.10;;;;;;4897955;29;20227;-82
2021/04/24 07:58:07;;;;;;;7.13;3.70;;;8.30;75.20;;;;;;4918864;29;20896;-82
2021/04/24 08:00:39;;;;;;;6.33;3.97;;;8.40;75.40;;;;;;4925765;29;20215;-79
2021/04/24 08:03:13;;;;;;;4.50;3.50;;;8.50;75.10;;;;;;4904776;29;20216;-81
2021/04/24 08:05:42;;;;;;;7.03;4.47;;;8.60;74.20;;;;;;4885434;28;20237;-82
2021/04/24 08:08:11;;;;;;;6.83;3.70;;;8.80;74.40;;;;;;4919009;29;20235;-83
2021/04/24 08:10:39;;;;;;;5.87;3.60;;;9.00;75.00;;;;;;4924124;29;20292;-82
2021/04/24 08:13:08;;;;;;;6.13;3.90;;;8.90;73.40;;;;;;4921402;29;20206;-81
2021/04/24 08:15:37;;;;;;;5.53;3.90;;;8.90;73.50;;;;;;4894666;29;20473;-82
2021/04/24 08:18:06;;;;;;;6.10;3.03;;;8.90;73.90;;;;;;4923758;29;20243;-82
2021/04/24 08:20:34;;;;;;;5.63;3.57;;;8.90;74.30;;;;;;4925113;29;20233;-82
2021/04/24 08:23:05;;;;;;;7.00;4.03;;;8.80;73.40;;;;;;4929995;29;20264;-81
2021/04/24 08:25:43;;;;;;;5.23;3.97;;;8.80;74.00;;;;;;4890204;28;20617;-83
2021/04/24 08:28:11;;;;;;;5.07;3.90;;;8.70;73.90;;;;;;4903063;29;20380;-83
2021/04/24 08:30:39;;;;;;;6.63;4.53;;;8.90;75.10;;;;;;4922876;29;20202;-83
2021/04/24 08:33:09;;;;;;;6.00;3.83;;;8.90;74.50;;;;;;4941015;29;20193;-81
2021/04/24 08:35:45;;;;;;;6.20;4.07;;;9.10;74.70;;;;;;4909664;29;20228;-81
2021/04/24 08:38:44;;;;;;;8.63;4.30;;;9.30;74.00;;;;;;4940437;29;20305;-79
2021/04/24 08:41:13;;;;;;;5.23;3.93;;;9.50;74.60;;;;;;4931362;29;20205;-82
2021/04/24 08:43:43;;;;;;;5.57;4.07;;;9.50;74.10;;;;;;4927519;29;20233;-83
2021/04/24 08:46:15;;;;;;;7.37;4.33;;;9.40;73.60;;;;;;4898529;29;20758;-80
2021/04/24 08:48:43;;;;;;;7.60;4.80;;;9.30;74.00;;;;;;4922890;29;20407;-85
2021/04/24 08:51:11;;;;;;;6.07;4.57;;;9.20;73.90;;;;;;4932870;29;20436;-82
2021/04/24 08:53:40;;;;;;;7.33;4.50;;;9.20;74.00;;;;;;4935084;29;20673;-83
2021/04/24 08:56:09;;;;;;;4.80;3.80;;;9.30;73.70;;;;;;4888433;29;20592;-82
2021/04/24 08:58:47;;;;;;;6.70;4.30;;;9.10;74.00;;;;;;4927605;29;20254;-83
2021/04/24 09:01:14;;;;;;;7.27;4.10;;;8.90;74.10;;;;;;4930579;29;20621;-83
2021/04/24 09:03:50;;;;;;;5.17;3.80;;;9.10;73.90;;;;;;4940421;29;20214;-83
2021/04/24 09:06:23;;;;;;;4.20;3.47;;;9.20;73.20;;;;;;4901009;29;20215;-82
2021/04/24 09:08:59;;;;;;;5.67;3.93;;;9.40;72.60;;;;;;4925420;29;20626;-83
2021/04/24 09:11:28;;;;;;;6.37;3.43;;;9.40;72.70;;;;;;4931548;29;20209;-82
2021/04/24 09:14:09;;;;;;;5.83;4.03;;;9.60;72.10;;;;;;4923224;29;20206;-84
2021/04/24 09:16:39;;;;;;;4.50;3.83;;;9.80;72.70;;;;;;4908323;29;20289;-80
2021/04/24 09:19:34;;;;;;;4.20;3.80;;;10.00;73.10;;;;;;4929904;29;20418;-83
2021/04/24 09:22:14;;;;;;;7.30;3.83;;;10.30;72.80;;;;;;4928059;29;20227;-83
2021/04/24 09:31:40;;;;;;;5.40;3.70;;;10.70;69.80;;;;;;5119091;27;20215;-81
2021/04/24 09:34:09;;;;;;;5.33;3.70;;;10.30;70.30;;;;;;5104091;27;20772;-82
2021/04/24 09:39:44;;;;;;;4.03;3.20;;;10.60;70.80;;;;;;5116696;28;20340;-83
2021/04/24 09:42:36;;;;;;;5.30;3.60;;;10.70;68.30;;;;;;5122157;27;20199;-82
2021/04/24 09:45:26;;;;;;;4.30;3.40;;;10.60;69.10;;;;;;5089468;27;20319;-83
2021/04/24 09:47:55;;;;;;;4.80;3.20;;;10.80;68.60;;;;;;5097523;27;20231;-82
2021/04/24 09:50:32;;;;;;;4.97;3.20;;;10.90;68.40;;;;;;5110058;27;20199;-83
2021/04/24 09:53:19;;;;;;;3.27;2.70;;;10.80;69.10;;;;;;5108942;27;20623;-81
2021/04/24 09:55:49;;;;;;;6.23;3.07;;;10.90;65.20;;;;;;5064350;27;20719;-84
2021/04/24 09:58:29;;;;;;;3.37;2.63;;;10.80;65.60;;;;;;5093825;28;20673;-83
2021/04/24 10:00:59;;;;;;;4.23;2.83;;;10.50;67.60;;;;;;5098649;27;20795;-82
2021/04/24 10:03:40;;;;;;;5.50;2.60;;;10.50;67.00;;;;;;5100107;28;20202;-82
2021/04/24 10:06:34;;;;;;;4.60;3.20;;;10.40;66.60;;;;;;5068586;27;20235;-84
2021/04/24 10:09:20;;;;;;;5.40;2.97;;;10.50;67.20;;;;;;5101266;27;20198;-85
2021/04/24 10:11:51;;;;;;;5.30;2.60;;;10.80;66.80;;;;;;5102444;28;20196;-83
2021/04/24 10:14:32;;;;;;;3.03;2.30;;;10.90;63.90;;;;;;5084416;27;20304;-83
2021/04/24 10:17:03;;;;;;;3.30;2.10;;;10.80;62.90;;;;;;5080066;27;20219;-82
2021/04/24 10:19:32;;;;;;;2.50;2.30;;;11.00;61.80;;;;;;5097930;27;20283;-81
2021/04/24 10:22:00;;;;;;;2.73;2.10;;;11.00;62.10;;;;;;5100491;27;20762;-82
2021/04/24 10:24:28;;;;;;;5.20;2.80;;;10.80;61.80;;;;;;5098905;27;20468;-83
2021/04/24 10:26:59;;;;;;;5.13;2.50;;;10.70;62.10;;;;;;5103391;27;20293;-82
2021/04/24 10:29:28;;;;;;;4.20;2.37;;;11.00;61.70;;;;;;5109712;27;20196;-81
2021/04/24 10:31:56;;;;;;;3.23;2.10;;;10.90;58.90;;;;;;5097637;27;20215;-81
2021/04/24 10:34:25;;;;;;;3.17;2.47;;;10.90;60.30;;;;;;5099229;27;20632;-83
2021/04/24 10:36:54;;;;;;;2.93;2.30;;;10.90;60.10;;;;;;5091826;27;20223;-83
2021/04/24 10:39:24;;;;;;;3.53;2.40;;;11.00;59.50;;;;;;5097124;28;20460;-83
2021/04/24 10:42:04;;;;;;;3.63;2.27;;;11.00;59.10;;;;;;5104478;28;20268;-83
2021/04/24 10:44:51;;;;;;;2.60;2.00;;;11.00;57.80;;;;;;5094455;28;20219;-83
2021/04/24 10:47:54;;;;;;;2.17;1.87;;;11.20;57.70;;;;;;5100711;28;20258;-83
2021/04/24 10:50:25;;;;;;;2.30;1.97;;;11.50;56.90;;;;;;5088013;28;20211;-83
2021/04/24 10:53:20;;;;;;;2.23;1.87;;;11.50;52.80;;;;;;5083881;28;20193;-83
2021/04/24 10:55:48;;;;;;;3.37;2.40;;;11.30;52.00;;;;;;5052141;27;20261;-83
2021/04/24 10:58:18;;;;;;;2.67;1.73;;;11.20;54.30;;;;;;5079446;28;20269;-83
2021/04/24 11:00:54;;;;;;;3.47;2.00;;;11.10;53.30;;;;;;5093898;27;20215;-81
2021/04/24 11:03:41;;;;;;;3.03;1.73;;;11.00;51.60;;;;;;5091227;28;20191;-82
2021/04/24 11:06:12;;;;;;;3.37;1.70;;;11.10;52.30;;;;;;5048142;28;21225;-83
2021/04/24 11:08:40;;;;;;;2.13;1.60;;;11.30;52.60;;;;;;5090096;28;20208;-83
2021/04/24 11:11:10;;;;;;;2.03;1.40;;;11.40;47.20;;;;;;5100661;28;20208;-82
2021/04/24 11:13:40;;;;;;;2.47;1.90;;;11.40;47.80;;;;;;5089022;28;20251;-82
2021/04/24 11:16:09;;;;;;;3.13;2.30;;;11.60;48.10;;;;;;5059828;27;21179;-83
2021/04/24 11:18:41;;;;;;;3.63;2.40;;;11.40;51.30;;;;;;5105233;28;20184;-84
2021/04/24 11:21:11;;;;;;;3.57;2.63;;;11.20;54.30;;;;;;5100852;28;20758;-84
2021/04/24 11:23:59;;;;;;;6.10;2.90;;;11.10;56.30;;;;;;5094550;28;20222;-82
2021/04/24 11:26:49;;;;;;;3.80;2.87;;;11.10;57.00;;;;;;5061991;27;20254;-81
2021/04/24 11:29:22;;;;;;;3.17;2.07;;;11.40;55.80;;;;;;5098852;28;20476;-82
2021/04/24 11:32:06;;;;;;;3.20;1.70;;;11.60;53.00;;;;;;5105548;28;20210;-81
2021/04/24 11:35:10;;;;;;;3.37;2.10;;;11.80;52.10;;;;;;5084874;28;20617;-83
2021/04/24 11:37:49;;;;;;;1.77;1.67;;;11.60;47.80;;;;;;5087873;28;20233;-81
2021/04/24 11:40:30;;;;;;;4.63;2.67;;;11.60;49.30;;;;;;5098580;28;20779;-84
2021/04/24 11:43:03;;;;;;;2.73;2.47;;;11.70;53.10;;;;;;5104454;28;21169;-84
2021/04/24 11:45:49;;;;;;;4.50;2.60;;;11.50;54.90;;;;;;5070474;28;20543;-83
2021/04/24 11:48:38;;;;;;;4.87;2.73;;;11.20;53.80;;;;;;5108179;28;20233;-84
2021/04/24 11:51:06;;;;;;;5.40;3.03;;;10.90;55.60;;;;;;5106400;28;20191;-83
2021/04/24 11:53:45;;;;;;;2.90;2.43;;;10.80;55.80;;;;;;5101249;28;20653;-83
2021/04/24 11:56:15;;;;;;;4.57;3.00;;;10.70;57.00;;;;;;5057093;27;20513;-84
2021/04/24 11:58:44;;;;;;;3.53;2.77;;;10.80;58.10;;;;;;5090433;28;20622;-84
2021/04/24 12:01:19;;;;;;;5.30;2.87;;;10.90;57.60;;;;;;5089771;28;20447;-82
2021/04/24 12:03:47;;;;;;;3.07;2.43;;;11.00;56.90;;;;;;5093364;28;20600;-83
2021/04/24 12:06:35;;;;;;;2.27;2.07;;;10.90;55.40;;;;;;5053602;28;20638;-83
2021/04/24 12:09:06;;;;;;;3.80;2.60;;;10.80;52.30;;;;;;5087533;28;20193;-83
2021/04/24 12:11:34;;;;;;;2.50;2.20;;;10.50;53.10;;;;;;5095090;28;20646;-84
2021/04/24 12:14:04;;;;;;;3.17;2.23;;;10.20;55.90;;;;;;5083841;28;20893;-83
2021/04/24 12:16:45;;;;;;;4.80;2.10;;;10.10;56.40;;;;;;5074198;28;21104;-82
2021/04/24 12:19:28;;;;;;;3.60;2.23;;;10.00;56.80;;;;;;5086419;28;20204;-84
2021/04/24 12:22:15;;;;;;;2.53;2.27;;;10.10;56.70;;;;;;5095567;28;21072;-82
2021/04/24 12:25:04;;;;;;;3.10;2.00;;;10.30;53.90;;;;;;5063829;28;20220;-84
2021/04/24 12:27:38;;;;;;;4.47;2.40;;;10.50;55.10;;;;;;5081746;28;20236;-84
2021/04/24 12:30:18;;;;;;;2.23;1.83;;;10.70;51.20;;;;;;5090948;28;20499;-84
2021/04/24 12:32:48;;;;;;;3.37;1.90;;;11.00;49.70;;;;;;5088075;28;20214;-83
2021/04/24 12:35:24;;;;;;;1.70;1.60;;;11.30;50.40;;;;;;5070624;28;21207;-83
2021/04/24 12:38:02;;;;;;;2.03;1.63;;;11.60;48.20;;;;;;5092470;28;20204;-82
2021/04/24 12:40:32;;;;;;;1.93;1.73;;;12.10;48.60;;;;;;5097788;28;20629;-82
2021/04/24 12:43:05;;;;;;;2.07;1.90;;;12.40;45.20;;;;;;5100637;28;20201;-81
2021/04/24 12:45:33;;;;;;;3.20;2.00;;;12.00;44.20;;;;;;5057098;27;20435;-84
2021/04/24 12:48:01;;;;;;;2.67;2.07;;;12.10;46.90;;;;;;5090437;28;20223;-82
2021/04/24 12:50:32;;;;;;;2.40;2.00;;;12.50;45.70;;;;;;5099281;28;20196;-86
2021/04/24 12:53:02;;;;;;;3.53;2.10;;;12.90;45.40;;;;;;5100486;28;20242;-84
2021/04/24 12:55:34;;;;;;;2.80;2.10;;;13.40;45.00;;;;;;5070999;28;20219;-82
2021/04/24 12:58:04;;;;;;;3.80;2.00;;;13.50;44.40;;;;;;5098591;28;20545;-82
2021/04/24 13:00:34;;;;;;;3.40;2.60;;;13.50;43.00;;;;;;5094696;27;20374;-83
2021/04/24 13:03:20;;;;;;;3.47;2.50;;;13.40;43.00;;;;;;5099944;28;20200;-84
2021/04/24 13:05:47;;;;;;;3.13;2.30;;;13.20;43.60;;;;;;5063212;28;20940;-82
2021/04/24 13:08:15;;;;;;;3.90;2.60;;;12.70;43.50;;;;;;5102400;28;20556;-83
2021/04/24 13:10:44;;;;;;;2.90;2.50;;;12.50;43.80;;;;;;5102002;28;20380;-82
2021/04/24 13:13:19;;;;;;;4.47;2.40;;;12.50;44.50;;;;;;5096104;28;20441;-83
2021/04/24 13:15:48;;;;;;;2.53;2.07;;;12.40;44.20;;;;;;5066630;28;20219;-83
2021/04/24 13:18:27;;;;;;;3.00;2.23;;;12.10;43.00;;;;;;5098859;27;20199;-84
2021/04/24 13:20:57;;;;;;;2.30;2.10;;;11.90;44.20;;;;;;5099720;28;20208;-83